Time,TemperatureF,DewpointF,PressureIn,WindDirection,WindDirectionDegrees,WindSpeedMPH,WindSpeedGustMPH,Humidity,HourlyPrecipIn,Conditions,Clouds,dailyrainin,SoftwareType,DateUTC
2013-01-07 00:03:00,67.0,67.0,30.12,NNW,342,1.0,3.0,100,99.99,,,-99.99,,2013-01-07 05:03:00,
2013-01-07 00:12:00,67.0,67.0,30.12,NNW,342,1.0,3.0,100,99.99,,,-99.99,,2013-01-07 05:12:00,
2013-01-07 00:22:00,67.0,67.0,30.12,North,10,2.0,4.0,100,99.99,,,-99.99,,2013-01-07 05:22:00,
2013-01-07 00:33:00,67.0,67.0,30.12,North,8,1.0,3.0,100,99.99,,,-99.99,,2013-01-07 05:33:00,
2013-01-07 00:42:00,67.0,67.0,30.12,North,8,1.0,3.0,100,99.99,,,-99.99,,2013-01-07 05:42:00,
2013-01-07 00:53:00,67.0,67.0,30.12,North,7,3.0,6.0,100,99.99,,,-99.99,,2013-01-07 05:53:00,
2013-01-07 01:02:00,67.0,67.0,30.11,North,350,4.0,7.0,100,99.99,,,-99.99,,2013-01-07 06:02:00,
2013-01-07 01:12:00,67.0,67.0,30.12,NNE,14,5.0,9.0,100,99.99,,,-99.99,,2013-01-07 06:12:00,
2013-01-07 01:22:00,67.0,67.0,30.12,NNE,14,5.0,9.0,100,99.99,,,-99.99,,2013-01-07 06:22:00,
2013-01-07 01:32:00,67.0,67.0,30.12,NNE,30,5.0,9.0,100,99.99,,,-99.99,,2013-01-07 06:32:00,
2013-01-07 01:42:00,67.0,67.0,30.12,NNE,30,5.0,9.0,100,99.99,,,-99.99,,2013-01-07 06:42:00,
2013-01-07 01:52:00,67.0,67.0,30.11,North,350,5.0,8.0,100,99.99,,,-99.99,,2013-01-07 06:52:00,
2013-01-07 02:02:00,67.0,67.0,30.12,North,359,5.0,8.0,100,99.99,,,-99.99,,2013-01-07 07:02:00,
2013-01-07 02:12:00,67.0,67.0,30.12,North,359,5.0,8.0,100,99.99,,,-99.99,,2013-01-07 07:12:00,
2013-01-07 02:22:00,67.0,67.0,30.12,NNE,20,6.0,11.0,100,99.99,,,-99.99,,2013-01-07 07:22:00,
2013-01-07 02:33:00,66.0,66.0,30.12,NE,34,6.0,11.0,100,99.99,,,-99.99,,2013-01-07 07:33:00,
2013-01-07 02:42:00,66.0,66.0,30.12,NE,34,6.0,11.0,100,99.99,,,-99.99,,2013-01-07 07:42:00,
2013-01-07 02:53:00,65.0,65.0,30.11,North,354,7.0,12.0,100,99.99,,,-99.99,,2013-01-07 07:53:00,
2013-01-07 03:03:00,65.0,65.0,30.11,ENE,62,7.0,14.0,100,99.99,,,-99.99,,2013-01-07 08:03:00,
2013-01-07 03:12:00,65.0,65.0,30.11,ENE,62,7.0,14.0,100,99.99,,,-99.99,,2013-01-07 08:12:00,
2013-01-07 03:22:00,65.0,65.0,30.11,East,87,6.0,10.0,100,99.99,,,-99.99,,2013-01-07 08:22:00,
2013-01-07 03:32:00,64.0,64.0,30.11,ENE,66,3.0,7.0,100,99.99,,,-99.99,,2013-01-07 08:32:00,
2013-01-07 03:42:00,64.0,64.0,30.11,ENE,66,3.0,7.0,100,99.99,,,-99.99,,2013-01-07 08:42:00,
2013-01-07 03:53:00,64.0,64.0,30.11,North,0,0.0,0.0,100,99.99,,,-99.99,,2013-01-07 08:53:00,
2013-01-07 04:02:00,64.0,64.0,30.10,NE,56,6.0,8.0,100,99.99,,,-99.99,,2013-01-07 09:02:00,
2013-01-07 04:12:00,64.0,64.0,30.10,NE,56,6.0,8.0,100,99.99,,,-99.99,,2013-01-07 09:12:00,
2013-01-07 04:22:00,64.0,64.0,30.11,ENE,65,5.0,8.0,100,99.99,,,-99.99,,2013-01-07 09:22:00,
2013-01-07 04:32:00,64.0,64.0,30.11,ENE,69,3.0,6.0,100,99.99,,,-99.99,,2013-01-07 09:32:00,
2013-01-07 04:42:00,64.0,64.0,30.11,ENE,69,3.0,6.0,100,99.99,,,-99.99,,2013-01-07 09:42:00,
2013-01-07 04:52:00,64.0,64.0,30.11,ENE,69,4.0,7.0,100,99.99,,,-99.99,,2013-01-07 09:52:00,
2013-01-07 05:02:00,64.0,64.0,30.12,NE,44,4.0,8.0,100,99.99,,,-99.99,,2013-01-07 10:02:00,
2013-01-07 05:12:00,64.0,64.0,30.12,NE,49,5.0,10.0,100,99.99,,,-99.99,,2013-01-07 10:12:00,
2013-01-07 05:22:00,64.0,64.0,30.12,NE,49,5.0,10.0,100,99.99,,,-99.99,,2013-01-07 10:22:00,
2013-01-07 05:32:00,64.0,64.0,30.12,NE,48,7.0,10.0,100,99.99,,,-99.99,,2013-01-07 10:32:00,
2013-01-07 05:42:00,64.0,64.0,30.12,NE,48,7.0,10.0,100,99.99,,,-99.99,,2013-01-07 10:42:00,
2013-01-07 05:52:00,64.0,64.0,30.13,NE,55,9.0,14.0,100,99.99,,,-99.99,,2013-01-07 10:52:00,
2013-01-07 06:02:00,63.0,63.0,30.13,NE,53,8.0,12.0,100,99.99,,,-99.99,,2013-01-07 11:02:00,
2013-01-07 06:12:00,63.0,63.0,30.13,NE,53,8.0,12.0,100,99.99,,,-99.99,,2013-01-07 11:12:00,
2013-01-07 06:23:00,63.0,63.0,30.13,NE,41,6.0,10.0,100,99.99,,,-99.99,,2013-01-07 11:23:00,
2013-01-07 06:33:00,63.0,63.0,30.14,NE,44,6.0,12.0,100,99.99,,,-99.99,,2013-01-07 11:33:00,
2013-01-07 06:43:00,63.0,63.0,30.14,NE,44,6.0,12.0,100,99.99,,,-99.99,,2013-01-07 11:43:00,
2013-01-07 06:53:00,63.0,63.0,30.15,NE,51,7.0,13.0,100,99.99,,,-99.99,,2013-01-07 11:53:00,
2013-01-07 07:03:00,62.0,62.0,30.15,ENE,58,8.0,14.0,100,99.99,,,-99.99,,2013-01-07 12:03:00,
2013-01-07 07:12:00,62.0,62.0,30.16,NE,44,8.0,15.0,100,99.99,,,-99.99,,2013-01-07 12:12:00,
2013-01-07 07:22:00,62.0,62.0,30.16,NE,44,8.0,15.0,100,99.99,,,-99.99,,2013-01-07 12:22:00,
2013-01-07 07:33:00,62.0,62.0,30.16,NE,51,8.0,16.0,100,99.99,,,-99.99,,2013-01-07 12:33:00,
2013-01-07 07:43:00,62.0,62.0,30.16,NE,51,8.0,16.0,100,99.99,,,-99.99,,2013-01-07 12:43:00,
2013-01-07 07:53:00,62.0,62.0,30.16,NNE,32,8.0,13.0,100,99.99,,,-99.99,,2013-01-07 12:53:00,
2013-01-07 08:02:00,62.0,62.0,30.16,NE,48,11.0,16.0,100,99.99,,,-99.99,,2013-01-07 13:02:00,
2013-01-07 08:12:00,62.0,62.0,30.16,NE,48,11.0,16.0,100,99.99,,,-99.99,,2013-01-07 13:12:00,
2013-01-07 08:23:00,62.0,62.0,30.17,ENE,62,11.0,17.0,100,99.99,,,-99.99,,2013-01-07 13:23:00,
2013-01-07 08:33:00,62.0,62.0,30.18,NE,45,8.0,13.0,100,99.99,,,-99.99,,2013-01-07 13:33:00,
2013-01-07 08:42:00,62.0,62.0,30.18,NE,45,8.0,13.0,100,99.99,,,-99.99,,2013-01-07 13:42:00,
2013-01-07 08:53:00,61.0,61.0,30.18,NE,51,9.0,14.0,100,99.99,,,-99.99,,2013-01-07 13:53:00,
2013-01-07 09:03:00,61.0,61.0,30.19,NE,56,10.0,17.0,100,99.99,,,-99.99,,2013-01-07 14:03:00,
2013-01-07 09:12:00,60.0,60.0,30.19,NE,56,11.0,19.0,100,99.99,,,-99.99,,2013-01-07 14:12:00,
2013-01-07 09:23:00,60.0,60.0,30.19,NE,56,11.0,19.0,100,99.99,,,-99.99,,2013-01-07 14:23:00,
2013-01-07 09:33:00,60.0,60.0,30.19,NE,39,10.0,14.0,100,99.99,,,-99.99,,2013-01-07 14:33:00,
2013-01-07 09:43:00,60.0,60.0,30.19,NE,39,10.0,14.0,100,99.99,,,-99.99,,2013-01-07 14:43:00,
2013-01-07 09:53:00,61.0,60.0,30.20,NE,52,10.0,16.0,97,99.99,,,-99.99,,2013-01-07 14:53:00,
2013-01-07 10:03:00,61.0,60.0,30.20,NE,52,11.0,16.0,97,99.99,,,-99.99,,2013-01-07 15:03:00,
2013-01-07 10:12:00,61.0,60.0,30.20,NE,52,11.0,16.0,97,99.99,,,-99.99,,2013-01-07 15:12:00,
2013-01-07 10:22:00,61.0,59.0,30.21,NE,46,13.0,17.0,92,99.99,,,-99.99,,2013-01-07 15:22:00,
2013-01-07 10:33:00,61.0,60.0,30.21,ENE,58,11.0,18.0,95,99.99,,,-99.99,,2013-01-07 15:33:00,
2013-01-07 10:43:00,61.0,60.0,30.21,ENE,58,11.0,18.0,95,99.99,,,-99.99,,2013-01-07 15:43:00,
2013-01-07 10:53:00,62.0,61.0,30.21,NNE,20,7.0,11.0,95,99.99,,,-99.99,,2013-01-07 15:53:00,
2013-01-07 11:02:00,62.0,61.0,30.20,NE,44,8.0,14.0,95,99.99,,,-99.99,,2013-01-07 16:02:00,
2013-01-07 11:12:00,62.0,61.0,30.20,NE,44,8.0,14.0,95,99.99,,,-99.99,,2013-01-07 16:12:00,
2013-01-07 11:22:00,62.0,59.0,30.20,ENE,70,11.0,16.0,91,99.99,,,-99.99,,2013-01-07 16:22:00,
2013-01-07 11:33:00,62.0,58.0,30.19,NE,42,8.0,13.0,87,99.99,,,-99.99,,2013-01-07 16:33:00,
2013-01-07 11:43:00,62.0,58.0,30.19,NE,42,8.0,13.0,87,99.99,,,-99.99,,2013-01-07 16:43:00,
2013-01-07 11:53:00,62.0,58.0,30.19,ENE,70,7.0,12.0,88,99.99,,,-99.99,,2013-01-07 16:53:00,
2013-01-07 12:03:00,63.0,59.0,30.18,NE,48,9.0,14.0,86,99.99,,,-99.99,,2013-01-07 17:03:00,
2013-01-07 12:12:00,63.0,59.0,30.18,NE,48,9.0,14.0,86,99.99,,,-99.99,,2013-01-07 17:12:00,
2013-01-07 12:23:00,64.0,59.0,30.18,NE,56,9.0,14.0,84,99.99,,,-99.99,,2013-01-07 17:23:00,
2013-01-07 12:33:00,64.0,58.0,30.17,ENE,59,9.0,13.0,81,99.99,,,-99.99,,2013-01-07 17:33:00,
2013-01-07 12:42:00,64.0,58.0,30.17,ENE,59,9.0,13.0,81,99.99,,,-99.99,,2013-01-07 17:42:00,
2013-01-07 12:53:00,65.0,59.0,30.16,ENE,65,9.0,16.0,82,99.99,,,-99.99,,2013-01-07 17:53:00,
2013-01-07 13:03:00,65.0,58.0,30.15,ENE,63,9.0,13.0,79,99.99,,,-99.99,,2013-01-07 18:03:00,
2013-01-07 13:12:00,65.0,58.0,30.15,ENE,63,9.0,13.0,79,99.99,,,-99.99,,2013-01-07 18:12:00,
2013-01-07 13:23:00,65.0,58.0,30.15,NE,53,7.0,12.0,79,99.99,,,-99.99,,2013-01-07 18:23:00,
2013-01-07 13:33:00,65.0,59.0,30.14,NE,37,7.0,12.0,80,99.99,,,-99.99,,2013-01-07 18:33:00,
2013-01-07 13:42:00,66.0,60.0,30.14,ENE,62,8.0,11.0,80,99.99,,,-99.99,,2013-01-07 18:42:00,
2013-01-07 13:53:00,66.0,60.0,30.14,ENE,62,8.0,11.0,80,99.99,,,-99.99,,2013-01-07 18:53:00,
2013-01-07 14:03:00,66.0,59.0,30.13,NE,56,7.0,10.0,79,99.99,,,-99.99,,2013-01-07 19:03:00,
2013-01-07 14:12:00,66.0,59.0,30.13,NE,56,7.0,10.0,79,99.99,,,-99.99,,2013-01-07 19:12:00,
2013-01-07 14:23:00,67.0,60.0,30.13,NE,48,9.0,12.0,79,99.99,,,-99.99,,2013-01-07 19:23:00,
2013-01-07 14:33:00,67.0,60.0,30.13,ENE,62,8.0,11.0,78,99.99,,,-99.99,,2013-01-07 19:33:00,
2013-01-07 14:43:00,67.0,60.0,30.13,ENE,62,8.0,11.0,78,99.99,,,-99.99,,2013-01-07 19:43:00,
2013-01-07 14:53:00,67.0,61.0,30.13,NE,51,8.0,13.0,80,99.99,,,-99.99,,2013-01-07 19:53:00,
2013-01-07 15:03:00,68.0,61.0,30.13,East,79,7.0,10.0,78,99.99,,,-99.99,,2013-01-07 20:03:00,
2013-01-07 15:12:00,68.0,61.0,30.13,East,79,7.0,10.0,78,99.99,,,-99.99,,2013-01-07 20:12:00,
2013-01-07 15:23:00,68.0,61.0,30.13,NE,37,8.0,12.0,77,99.99,,,-99.99,,2013-01-07 20:23:00,
2013-01-07 15:33:00,68.0,61.0,30.13,NNE,17,7.0,11.0,78,99.99,,,-99.99,,2013-01-07 20:33:00,
2013-01-07 15:42:00,68.0,61.0,30.13,NNE,17,7.0,11.0,78,99.99,,,-99.99,,2013-01-07 20:42:00,
2013-01-07 15:53:00,68.0,61.0,30.13,ENE,59,8.0,12.0,79,99.99,,,-99.99,,2013-01-07 20:53:00,
2013-01-07 16:03:00,69.0,62.0,30.13,ENE,60,7.0,10.0,79,99.99,,,-99.99,,2013-01-07 21:03:00,
2013-01-07 16:12:00,69.0,62.0,30.13,ENE,60,7.0,10.0,79,99.99,,,-99.99,,2013-01-07 21:12:00,
2013-01-07 16:23:00,69.0,61.0,30.14,ENE,65,5.0,9.0,77,99.99,,,-99.99,,2013-01-07 21:23:00,
2013-01-07 16:33:00,68.0,61.0,30.14,NE,53,6.0,9.0,79,99.99,,,-99.99,,2013-01-07 21:33:00,
2013-01-07 16:43:00,68.0,61.0,30.14,NE,53,6.0,9.0,79,99.99,,,-99.99,,2013-01-07 21:43:00,
2013-01-07 16:52:00,68.0,62.0,30.14,NE,44,5.0,8.0,81,99.99,,,-99.99,,2013-01-07 21:52:00,
2013-01-07 17:03:00,68.0,62.0,30.14,ENE,60,6.0,8.0,82,99.99,,,-99.99,,2013-01-07 22:03:00,
2013-01-07 17:12:00,68.0,62.0,30.14,ENE,60,6.0,8.0,82,99.99,,,-99.99,,2013-01-07 22:12:00,
2013-01-07 17:23:00,69.0,63.0,30.14,ENE,70,5.0,8.0,81,99.99,,,-99.99,,2013-01-07 22:23:00,
2013-01-07 17:33:00,69.0,63.0,30.14,ENE,65,8.0,13.0,81,99.99,,,-99.99,,2013-01-07 22:33:00,
2013-01-07 17:43:00,69.0,63.0,30.14,ENE,65,8.0,13.0,81,99.99,,,-99.99,,2013-01-07 22:43:00,
2013-01-07 17:53:00,69.0,63.0,30.14,ENE,58,8.0,12.0,80,99.99,,,-99.99,,2013-01-07 22:53:00,
2013-01-07 18:02:00,68.0,61.0,30.15,NE,34,7.0,12.0,78,99.99,,,-99.99,,2013-01-07 23:02:00,
2013-01-07 18:12:00,68.0,62.0,30.16,NE,56,8.0,12.0,80,99.99,,,-99.99,,2013-01-07 23:12:00,
2013-01-07 18:22:00,68.0,62.0,30.16,NE,56,8.0,12.0,80,99.99,,,-99.99,,2013-01-07 23:22:00,
2013-01-07 18:33:00,68.0,61.0,30.16,ENE,68,6.0,10.0,79,99.99,,,-99.99,,2013-01-07 23:33:00,
2013-01-07 18:43:00,68.0,61.0,30.16,ENE,68,6.0,10.0,79,99.99,,,-99.99,,2013-01-07 23:43:00,
2013-01-07 18:53:00,68.0,62.0,30.16,ENE,62,8.0,11.0,80,99.99,,,-99.99,,2013-01-07 23:53:00,
2013-01-07 19:03:00,67.0,61.0,30.16,ENE,65,8.0,11.0,80,99.99,,,-99.99,,2013-01-08 00:03:00,
2013-01-07 19:12:00,67.0,61.0,30.16,ENE,65,8.0,11.0,80,99.99,,,-99.99,,2013-01-08 00:12:00,
2013-01-07 19:22:00,67.0,61.0,30.16,ENE,60,8.0,11.0,81,99.99,,,-99.99,,2013-01-08 00:22:00,
2013-01-07 19:33:00,67.0,61.0,30.16,NE,49,9.0,13.0,81,99.99,,,-99.99,,2013-01-08 00:33:00,
2013-01-07 19:42:00,67.0,61.0,30.16,NE,49,9.0,13.0,81,99.99,,,-99.99,,2013-01-08 00:42:00,
2013-01-07 19:53:00,67.0,62.0,30.17,NE,51,9.0,14.0,84,99.99,,,-99.99,,2013-01-08 00:53:00,
2013-01-07 20:03:00,67.0,62.0,30.17,NE,53,9.0,13.0,84,99.99,,,-99.99,,2013-01-08 01:03:00,
2013-01-07 20:12:00,67.0,62.0,30.17,NE,53,9.0,13.0,84,99.99,,,-99.99,,2013-01-08 01:12:00,
2013-01-07 20:22:00,67.0,63.0,30.17,ENE,65,9.0,15.0,86,99.99,,,-99.99,,2013-01-08 01:22:00,
2013-01-07 20:33:00,67.0,64.0,30.17,NE,53,8.0,14.0,89,99.99,,,-99.99,,2013-01-08 01:33:00,
2013-01-07 20:42:00,67.0,64.0,30.17,NE,53,8.0,14.0,89,99.99,,,-99.99,,2013-01-08 01:42:00,
2013-01-07 20:52:00,66.0,62.0,30.17,NE,46,5.0,9.0,87,99.99,,,-99.99,,2013-01-08 01:52:00,
2013-01-07 21:02:00,65.0,64.0,30.18,NE,38,4.0,8.0,96,99.99,,,-99.99,,2013-01-08 02:02:00,
2013-01-07 21:12:00,65.0,64.0,30.18,NE,38,4.0,8.0,96,99.99,,,-99.99,,2013-01-08 02:12:00,
2013-01-07 21:22:00,65.0,64.0,30.18,NE,51,5.0,8.0,98,99.99,,,-99.99,,2013-01-08 02:22:00,
2013-01-07 21:33:00,64.0,64.0,30.17,NE,46,5.0,9.0,99,99.99,,,-99.99,,2013-01-08 02:33:00,
2013-01-07 21:42:00,64.0,64.0,30.17,NE,46,5.0,9.0,99,99.99,,,-99.99,,2013-01-08 02:42:00,
2013-01-07 21:53:00,64.0,64.0,30.16,NE,46,5.0,8.0,100,99.99,,,-99.99,,2013-01-08 02:53:00,
2013-01-07 22:03:00,64.0,64.0,30.16,ENE,69,7.0,9.0,100,99.99,,,-99.99,,2013-01-08 03:03:00,
2013-01-07 22:12:00,64.0,64.0,30.16,ENE,69,7.0,9.0,100,99.99,,,-99.99,,2013-01-08 03:12:00,
2013-01-07 22:22:00,64.0,64.0,30.16,ENE,69,6.0,9.0,100,99.99,,,-99.99,,2013-01-08 03:22:00,
2013-01-07 22:32:00,64.0,64.0,30.16,ENE,59,5.0,9.0,100,99.99,,,-99.99,,2013-01-08 03:32:00,
2013-01-07 22:43:00,64.0,64.0,30.16,ENE,59,5.0,9.0,100,99.99,,,-99.99,,2013-01-08 03:43:00,
2013-01-07 22:53:00,63.0,63.0,30.16,NE,46,6.0,9.0,100,99.99,,,-99.99,,2013-01-08 03:53:00,
2013-01-07 23:02:00,63.0,63.0,30.16,NE,51,4.0,8.0,100,99.99,,,-99.99,,2013-01-08 04:02:00,
2013-01-07 23:12:00,63.0,63.0,30.16,NE,51,4.0,8.0,100,99.99,,,-99.99,,2013-01-08 04:12:00,
2013-01-07 23:22:00,63.0,63.0,30.16,NE,34,5.0,10.0,100,99.99,,,-99.99,,2013-01-08 04:22:00,
2013-01-07 23:32:00,64.0,64.0,30.16,NE,39,5.0,9.0,100,99.99,,,-99.99,,2013-01-08 04:32:00,
2013-01-07 23:42:00,64.0,64.0,30.16,NE,39,5.0,9.0,100,99.99,,,-99.99,,2013-01-08 04:42:00,
2013-01-07 23:52:00,64.0,64.0,30.16,ENE,58,6.0,10.0,100,99.99,,,-99.99,,2013-01-08 04:52:00,